Dzaoudzi, Comoros
Current Conditions -  °F | °C
As of 12:00 PM on Friday 19 Dec 2014 (Local Time) from FMCZ Reporting Station
Broken Clouds Broken Clouds  
Wind Chill: 90°   Ceiling: 15000
Heat Index: 100°   Visibility: 6mi
Dew Point: 75°   Wind: 13mph
Humidity: 62%   Direction: 330°NNW
Pressure: 29.91"   Gusts: NA
Location:  12.8°S, 45.28°E
Report Text: FMCZ 190900Z 33011KT 9999 FEW020TCU BKN150 32/24 Q1013 NOSIG
Loading
Personal Weather Stations






























Interactive Weather Map New forecast layout! Learn more

10-Day Weather Forecast

Advertisements
Track Severe Weather on mobile